Time;durP1;ratioP1;P1;durP2;ratioP2;P2;SDS_P1;SDS_P2;PMS_P1;PMS_P2;Temp;Humidity;BMP_temperature;BMP_pressure;BME280_temperature;BME280_humidity;BME280_pressure;Samples;Min_cycle;Max_cycle;Signal;HPM_P1;HPM_P2
2022/12/26 00:01:07;;;;;;;;;;;;;;;7.24;100.00;101565.91;5063928;28;19916;-77
2022/12/26 00:03:33;;;;;;;;;;;;;;;7.23;100.00;101557.19;5070040;28;19934;-77
2022/12/26 00:05:58;;;;;;;;;;;;;;;7.22;100.00;101558.13;5064379;28;19920;-77
2022/12/26 00:08:23;;;;;;;;;;;;;;;7.23;100.00;101562.44;5062538;28;20002;-78
2022/12/26 00:10:49;;;;;;;;;;;;;;;7.21;100.00;101551.22;5063866;28;20016;-79
2022/12/26 00:13:14;;;;;;;;;;;;;;;7.20;100.00;101552.16;5062732;28;19923;-76
2022/12/26 00:15:40;;;;;;;;;;;;;;;7.17;100.00;101555.84;5062163;28;19920;-79
2022/12/26 00:18:05;;;;;;;;;;;;;;;7.16;100.00;101561.19;5063618;28;20679;-77
2022/12/26 00:20:30;;;;;;;;;;;;;;;7.16;100.00;101558.56;5061686;28;19919;-78
2022/12/26 00:22:56;;;;;;;;;;;;;;;7.17;100.00;101560.25;5063904;28;19916;-77
2022/12/26 00:25:21;;;;;;;;;;;;;;;7.15;100.00;101549.03;5063439;28;19920;-79
2022/12/26 00:27:46;;;;;;;;;;;;;;;7.15;100.00;101557.72;5062962;28;19973;-77
2022/12/26 00:30:12;;;;;;;;;;;;;;;7.16;100.00;101554.16;5063211;28;19928;-77
2022/12/26 00:32:37;;;;;;;;;;;;;;;7.20;100.00;101557.41;5062694;28;19965;-78
2022/12/26 00:35:02;;;;;;;;;;;;;;;7.22;100.00;101552.88;5070241;28;19996;-78
2022/12/26 00:37:27;;;;;;;;;;;;;;;7.22;100.00;101558.13;5064144;28;20341;-79
2022/12/26 00:39:53;;;;;;;;;;;;;;;7.20;100.00;101552.16;5062051;28;19980;-77
2022/12/26 00:42:18;;;;;;;;;;;;;;;7.21;100.00;101554.66;5070111;28;19962;-79
2022/12/26 00:44:43;;;;;;;;;;;;;;;7.26;100.00;101564.00;5062030;28;20351;-78
2022/12/26 00:47:08;;;;;;;;;;;;;;;7.24;100.00;101568.53;5063892;28;19916;-77
2022/12/26 00:49:34;;;;;;;;;;;;;;;7.26;100.00;101570.09;5045260;28;19928;-77
2022/12/26 00:51:59;;;;;;;;;;;;;;;7.27;100.00;101563.88;5062895;28;19950;-76
2022/12/26 00:54:24;;;;;;;;;;;;;;;7.30;100.00;101578.59;5062771;28;19967;-78
2022/12/26 00:56:49;;;;;;;;;;;;;;;7.29;100.00;101580.34;5060916;28;20381;-77
2022/12/26 00:59:15;;;;;;;;;;;;;;;7.30;100.00;101584.69;5062044;28;19923;-76
2022/12/26 01:01:40;;;;;;;;;;;;;;;7.32;100.00;101588.03;5062025;28;19974;-77
2022/12/26 01:04:05;;;;;;;;;;;;;;;7.34;100.00;101593.19;5067508;28;19931;-78
2022/12/26 01:06:30;;;;;;;;;;;;;;;7.31;100.00;101580.25;5061813;28;19936;-79
2022/12/26 01:08:56;;;;;;;;;;;;;;;7.33;100.00;101579.19;5061208;28;19919;-78
2022/12/26 01:11:39;;;;;;;;;;;;;;;7.37;100.00;101580.66;5064147;28;19946;-77
2022/12/26 01:14:05;;;;;;;;;;;;;;;7.43;100.00;101589.88;5061817;28;19966;-77
2022/12/26 01:16:31;;;;;;;;;;;;;;;7.46;100.00;101591.44;5068008;28;20030;-79
2022/12/26 01:18:56;;;;;;;;;;;;;;;7.49;100.00;101593.84;5065717;28;19919;-78
2022/12/26 01:21:21;;;;;;;;;;;;;;;7.43;100.00;101595.13;5067499;28;19927;-78
2022/12/26 01:23:47;;;;;;;;;;;;;;;7.44;100.00;101601.22;5065277;28;19920;-79
2022/12/26 01:26:12;;;;;;;;;;;;;;;7.42;100.00;101585.56;5067989;28;20275;-78
2022/12/26 01:28:37;;;;;;;;;;;;;;;7.47;100.00;101580.84;5066288;28;19988;-79
2022/12/26 01:31:03;;;;;;;;;;;;;;;7.50;100.00;101579.75;5048513;28;20225;-78
2022/12/26 01:33:28;;;;;;;;;;;;;;;7.45;100.00;101563.47;5066713;28;19959;-77
2022/12/26 01:35:54;;;;;;;;;;;;;;;7.53;100.00;101563.78;5066318;28;20341;-79
2022/12/26 01:38:20;;;;;;;;;;;;;;;7.47;100.00;101554.56;5066119;28;19954;-79
2022/12/26 01:40:45;;;;;;;;;;;;;;;7.47;100.00;101564.22;5065201;28;20395;-77
2022/12/26 01:43:11;;;;;;;;;;;;;;;7.45;100.00;101558.22;5066099;28;20383;-78
2022/12/26 01:45:36;;;;;;;;;;;;;;;7.43;100.00;101555.75;5066421;28;19922;-77
2022/12/26 01:48:14;;;;;;;;;;;;;;;7.42;100.00;101546.16;5066840;28;20311;-78
2022/12/26 01:50:50;;;;;;;;;;;;;;;7.45;100.00;101543.34;5065650;28;20313;-77
2022/12/26 01:53:15;;;;;;;;;;;;;;;7.43;100.00;101537.34;5066800;28;20112;-78
2022/12/26 01:55:42;;;;;;;;;;;;;;;7.44;100.00;101543.44;5066096;28;19994;-77
2022/12/26 01:58:11;;;;;;;;;;;;;;;7.41;100.00;101540.09;5066117;28;19916;-78
2022/12/26 02:00:37;;;;;;;;;;;;;;;7.44;100.00;101541.66;5071616;28;19916;-79
2022/12/26 02:05:47;;;;;;;;;;;;;;;7.47;100.00;101532.69;5066554;28;20441;-78
2022/12/26 02:08:16;;;;;;;;;;;;;;;7.46;100.00;101533.66;5066213;28;19920;-81
2022/12/26 02:10:47;;;;;;;;;;;;;;;7.43;100.00;101531.28;5065114;28;20019;-79
2022/12/26 02:13:12;;;;;;;;;;;;;;;7.46;100.00;101531.88;5066932;28;20558;-78
2022/12/26 02:15:38;;;;;;;;;;;;;;;7.47;100.00;101523.06;5065993;28;19915;-77
2022/12/26 02:18:04;;;;;;;;;;;;;;;7.43;100.00;101531.28;5063951;28;20008;-76
2022/12/26 02:20:34;;;;;;;;;;;;;;;7.38;100.00;101523.69;5064423;28;19920;-79
2022/12/26 02:22:59;;;;;;;;;;;;;;;7.35;100.00;101527.41;5066332;28;20445;-78
2022/12/26 02:25:29;;;;;;;;;;;;;;;7.37;100.00;101525.50;5064876;28;19920;-79
2022/12/26 02:28:03;;;;;;;;;;;;;;;7.39;100.00;101525.41;5066104;28;19919;-78
2022/12/26 02:30:34;;;;;;;;;;;;;;;7.39;100.00;101522.78;5064379;28;20287;-79
2022/12/26 02:33:18;;;;;;;;;;;;;;;7.36;100.00;101523.84;5066887;28;19938;-78
2022/12/26 02:35:43;;;;;;;;;;;;;;;7.35;100.00;101526.56;5066028;28;19966;-81
2022/12/26 02:38:16;;;;;;;;;;;;;;;7.35;100.00;101527.41;5064365;28;20306;-77
2022/12/26 02:40:48;;;;;;;;;;;;;;;7.32;100.00;101513.69;5063657;28;19920;-77
2022/12/26 02:43:22;;;;;;;;;;;;;;;7.32;100.00;101524.19;5065101;28;19916;-77
2022/12/26 02:48:46;;;;;;;;;;;;;;;7.34;100.00;101538.03;5064632;28;20297;-79
2022/12/26 03:14:33;;;;;;;;;;;;;;;7.30;100.00;101534.78;5065323;28;20466;-78
2022/12/26 03:17:20;;;;;;;;;;;;;;;7.32;100.00;101534.69;5065449;28;19912;-77
2022/12/26 03:20:05;;;;;;;;;;;;;;;7.34;100.00;101528.38;5064768;28;19924;-79
2022/12/26 03:22:35;;;;;;;;;;;;;;;7.36;100.00;101530.84;5053723;28;20038;-79
2022/12/26 03:27:48;;;;;;;;;;;;;;;7.39;100.00;101523.59;5065293;28;19923;-79
2022/12/26 03:32:58;;;;;;;;;;;;;;;7.39;100.00;101535.91;5065395;28;19923;-79
2022/12/26 03:35:24;;;;;;;;;;;;;;;7.37;100.00;101538.63;5063638;28;20403;-78
2022/12/26 03:38:00;;;;;;;;;;;;;;;7.36;100.00;101536.97;5063527;28;19978;-77
2022/12/26 04:20:15;;;;;;;;;;;;;;;7.59;100.00;101532.63;5063264;28;19981;-79
2022/12/26 04:45:39;;;;;;;;;;;;;;;7.75;100.00;101487.69;5064427;28;20464;-77
2022/12/26 04:50:50;;;;;;;;;;;;;;;7.76;100.00;101470.13;5063871;28;20326;-78
2022/12/26 04:53:15;;;;;;;;;;;;;;;7.74;100.00;101462.34;5063123;28;20405;-76
2022/12/26 04:55:40;;;;;;;;;;;;;;;7.73;100.00;101455.44;5063810;28;20034;-76
2022/12/26 04:58:05;;;;;;;;;;;;;;;7.70;100.00;101450.38;5061213;28;20454;-78
2022/12/26 05:00:31;;;;;;;;;;;;;;;7.74;100.00;101443.94;5062975;28;20337;-77
2022/12/26 05:11:11;;;;;;;;;;;;;;;7.76;100.00;101436.78;5064229;28;20384;-78
2022/12/26 05:13:37;;;;;;;;;;;;;;;7.75;100.00;101427.25;5061465;28;19932;-78
2022/12/26 05:29:41;;;;;;;;;;;;;;;7.79;100.00;101410.25;5063540;28;20050;-78
2022/12/26 05:32:06;;;;;;;;;;;;;;;7.83;100.00;101398.56;5062751;28;20399;-77
2022/12/26 05:34:31;;;;;;;;;;;;;;;7.86;100.00;101396.66;5068629;28;19916;-77
2022/12/26 05:36:58;;;;;;;;;;;;;;;7.90;100.00;101367.38;5063464;28;19916;-78
2022/12/26 05:39:23;;;;;;;;;;;;;;;7.95;100.00;101369.69;5062753;28;20386;-76
2022/12/26 05:41:49;;;;;;;;;;;;;;;7.92;100.00;101341.81;5063185;28;20230;-77
2022/12/26 05:44:14;;;;;;;;;;;;;;;7.91;100.00;101326.19;5061117;28;19959;-79
2022/12/26 05:46:41;;;;;;;;;;;;;;;7.92;100.00;101322.59;5062677;28;19980;-79
2022/12/26 05:49:06;;;;;;;;;;;;;;;7.90;100.00;101314.81;5063497;28;19927;-78
2022/12/26 05:51:31;;;;;;;;;;;;;;;7.87;100.00;101290.59;5062843;28;19920;-77
2022/12/26 05:53:57;;;;;;;;;;;;;;;7.83;100.00;101282.94;5063553;28;20565;-78
2022/12/26 05:56:22;;;;;;;;;;;;;;;7.78;100.00;101264.09;5061571;28;19916;-77
2022/12/26 05:58:52;;;;;;;;;;;;;;;7.76;100.00;101239.72;5062041;28;20550;-79
2022/12/26 06:01:18;;;;;;;;;;;;;;;7.74;100.00;101228.50;5066592;28;20342;-78
2022/12/26 06:03:47;;;;;;;;;;;;;;;7.74;100.00;101219.78;5066126;28;19957;-79
2022/12/26 06:06:13;;;;;;;;;;;;;;;7.70;100.00;101213.09;5066872;28;19928;-77
2022/12/26 06:08:38;;;;;;;;;;;;;;;7.70;100.00;101216.56;5065197;28;19924;-78
2022/12/26 06:11:08;;;;;;;;;;;;;;;7.70;100.00;101213.09;5064080;28;20457;-77
2022/12/26 06:13:34;;;;;;;;;;;;;;;7.72;100.00;101201.50;5066739;28;19959;-77
2022/12/26 06:16:02;;;;;;;;;;;;;;;7.72;100.00;101201.50;5063788;28;20015;-79
2022/12/26 06:18:27;;;;;;;;;;;;;;;7.74;100.00;101211.91;5067186;28;20006;-78
2022/12/26 06:20:53;;;;;;;;;;;;;;;7.74;100.00;101202.22;5064195;28;20052;-76
2022/12/26 06:23:18;;;;;;;;;;;;;;;7.76;100.00;101200.31;5064330;28;20021;-79
2022/12/26 06:25:43;;;;;;;;;;;;;;;7.81;100.00;101185.00;5065900;28;19920;-77
2022/12/26 06:28:08;;;;;;;;;;;;;;;7.80;100.00;101180.72;5065430;28;19920;-77
2022/12/26 06:30:34;;;;;;;;;;;;;;;7.80;100.00;101167.56;5064141;28;19928;-77
2022/12/26 06:32:59;;;;;;;;;;;;;;;7.80;100.00;101161.50;5064291;28;19924;-79
2022/12/26 06:35:24;;;;;;;;;;;;;;;7.78;100.00;101147.63;5065612;28;19927;-76
2022/12/26 06:37:49;;;;;;;;;;;;;;;7.78;100.00;101137.97;5066211;28;19931;-76
2022/12/26 06:40:14;;;;;;;;;;;;;;;7.75;100.00;101126.84;5064783;28;20160;-78
2022/12/26 06:42:40;;;;;;;;;;;;;;;7.76;100.00;101121.47;5063578;28;19927;-78
2022/12/26 06:45:05;;;;;;;;;;;;;;;7.76;100.00;101108.34;5055303;28;19980;-78
2022/12/26 06:47:30;;;;;;;;;;;;;;;7.76;100.00;101108.34;5064222;28;20462;-76
2022/12/26 06:49:56;;;;;;;;;;;;;;;7.75;100.00;101096.19;5065484;28;20296;-76
2022/12/26 06:52:21;;;;;;;;;;;;;;;7.76;100.00;101095.22;5063824;28;20203;-77
2022/12/26 06:54:46;;;;;;;;;;;;;;;7.78;100.00;101087.22;5064548;28;20007;-78
2022/12/26 06:57:11;;;;;;;;;;;;;;;7.78;100.00;101082.78;5064752;28;19920;-80
2022/12/26 06:59:37;;;;;;;;;;;;;;;7.79;100.00;101086.22;5064446;28;19943;-79
2022/12/26 07:02:02;;;;;;;;;;;;;;;7.78;100.00;101069.66;5065612;28;20103;-75
2022/12/26 07:04:27;;;;;;;;;;;;;;;7.83;100.00;101077.97;5064331;28;19916;-78
2022/12/26 07:06:52;;;;;;;;;;;;;;;7.83;100.00;101070.09;5066012;28;20295;-78
2022/12/26 07:09:18;;;;;;;;;;;;;;;7.86;100.00;101049.78;5063651;28;21126;-77
2022/12/26 07:11:45;;;;;;;;;;;;;;;7.84;100.00;101044.66;5064081;28;20294;-76
2022/12/26 07:14:12;;;;;;;;;;;;;;;7.82;100.00;101034.28;5063772;28;19918;-78
2022/12/26 07:16:39;;;;;;;;;;;;;;;7.81;100.00;101032.59;5064792;28;20462;-79
2022/12/26 07:19:04;;;;;;;;;;;;;;;7.83;100.00;101025.41;5064664;28;19917;-77
2022/12/26 07:21:30;;;;;;;;;;;;;;;7.82;100.00;101013.25;5064813;28;19918;-79
2022/12/26 07:23:55;;;;;;;;;;;;;;;7.83;100.00;101014.91;5063539;28;20658;-77
2022/12/26 07:26:21;;;;;;;;;;;;;;;7.86;100.00;101016.47;5076893;28;20039;-76
2022/12/26 07:28:46;;;;;;;;;;;;;;;7.90;100.00;100993.38;5062863;28;19920;-75
2022/12/26 07:31:16;;;;;;;;;;;;;;;7.96;100.00;101006.84;5061365;28;19923;-79
2022/12/26 07:33:41;;;;;;;;;;;;;;;7.98;100.00;101004.09;5062015;28;19939;-77
2022/12/26 07:36:06;;;;;;;;;;;;;;;7.99;100.00;100984.72;5062524;28;20426;-76
2022/12/26 07:38:32;;;;;;;;;;;;;;;8.01;100.00;100988.03;5063089;28;19938;-77
2022/12/26 07:40:57;;;;;;;;;;;;;;;7.99;100.00;100982.06;5061434;28;19972;-76
2022/12/26 07:43:23;;;;;;;;;;;;;;;7.98;100.00;100967.28;5062856;28;19912;-78
2022/12/26 07:45:49;;;;;;;;;;;;;;;7.96;100.00;100956.91;5062411;28;20558;-80
2022/12/26 07:48:14;;;;;;;;;;;;;;;8.00;100.00;100955.69;5062657;28;19927;-77
2022/12/26 07:50:40;;;;;;;;;;;;;;;8.03;100.00;100936.19;5061669;28;20233;-77
2022/12/26 07:53:05;;;;;;;;;;;;;;;8.06;100.00;100924.56;5045523;28;19947;-78
2022/12/26 07:55:30;;;;;;;;;;;;;;;8.00;100.00;100915.44;5060400;28;20131;-77
2022/12/26 07:57:55;;;;;;;;;;;;;;;7.97;100.00;100905.16;5075746;28;19916;-78
2022/12/26 08:00:21;;;;;;;;;;;;;;;7.96;100.00;100916.66;5058128;28;19960;-76
2022/12/26 08:02:47;;;;;;;;;;;;;;;7.94;100.00;100908.88;5062486;28;19916;-76
2022/12/26 08:05:13;;;;;;;;;;;;;;;7.95;100.00;100901.84;5060464;28;19916;-77
2022/12/26 08:07:38;;;;;;;;;;;;;;;7.92;100.00;100907.34;5059999;28;19954;-79
2022/12/26 08:10:03;;;;;;;;;;;;;;;7.88;100.00;100900.69;5061188;28;19916;-77
2022/12/26 08:12:30;;;;;;;;;;;;;;;7.89;100.00;100897.13;5062397;28;19927;-76
2022/12/26 08:14:56;;;;;;;;;;;;;;;7.89;100.00;100894.50;5061795;28;19935;-77
2022/12/26 08:17:21;;;;;;;;;;;;;;;7.88;100.00;100893.63;5044688;28;19927;-76
2022/12/26 08:19:46;;;;;;;;;;;;;;;7.90;100.00;100885.63;5061238;28;20443;-75
2022/12/26 08:22:11;;;;;;;;;;;;;;;7.89;100.00;100891.88;5063547;28;19920;-78
2022/12/26 08:24:37;;;;;;;;;;;;;;;7.89;100.00;100879.56;5059806;28;19952;-77
2022/12/26 08:27:02;;;;;;;;;;;;;;;7.92;100.00;100875.81;5061843;28;19935;-77
2022/12/26 08:29:28;;;;;;;;;;;;;;;7.93;100.00;100888.00;5045878;28;20353;-77
2022/12/26 08:31:53;;;;;;;;;;;;;;;7.93;100.00;100872.25;5060332;28;19971;-78
2022/12/26 08:34:18;;;;;;;;;;;;;;;7.93;100.00;100893.28;5061195;28;19947;-78
2022/12/26 08:36:43;;;;;;;;;;;;;;;7.96;100.00;100893.81;5060013;28;19923;-78
2022/12/26 08:39:09;;;;;;;;;;;;;;;7.96;100.00;100882.47;5060751;28;20260;-77
2022/12/26 08:41:34;;;;;;;;;;;;;;;7.97;100.00;100879.72;5059073;28;19920;-78
2022/12/26 08:43:59;;;;;;;;;;;;;;;8.02;100.00;100876.69;5061180;28;19916;-79
2022/12/26 08:46:24;;;;;;;;;;;;;;;8.00;100.00;100873.38;5061112;28;20324;-76
2022/12/26 08:48:50;;;;;;;;;;;;;;;8.02;100.00;100866.19;5059480;28;20322;-78
2022/12/26 08:51:19;;;;;;;;;;;;;;;8.02;100.00;100871.44;5059990;28;19916;-76
2022/12/26 08:53:45;;;;;;;;;;;;;;;8.03;100.00;100868.69;5060097;28;20419;-76
2022/12/26 08:56:12;;;;;;;;;;;;;;;8.10;100.00;100879.50;5060118;28;19920;-78
2022/12/26 08:58:37;;;;;;;;;;;;;;;8.09;100.00;100872.56;5059325;28;19997;-77
2022/12/26 09:01:07;;;;;;;;;;;;;;;8.09;100.00;100877.00;5042951;28;19920;-77
2022/12/26 09:03:32;;;;;;;;;;;;;;;8.07;100.00;100884.19;5060157;28;20337;-77
2022/12/26 09:05:58;;;;;;;;;;;;;;;8.05;100.00;100881.69;5075009;28;19916;-78
2022/12/26 09:08:23;;;;;;;;;;;;;;;8.01;100.00;100891.66;5080426;28;19923;-80
2022/12/26 09:10:49;;;;;;;;;;;;;;;8.01;100.00;100893.41;5066434;28;20212;-81
2022/12/26 09:13:14;;;;;;;;;;;;;;;8.03;100.00;100899.38;5070547;28;19924;-78
2022/12/26 09:15:39;;;;;;;;;;;;;;;7.98;100.00;100901.59;5049505;28;20367;-81
2022/12/26 09:18:06;;;;;;;;;;;;;;;7.98;100.00;100902.41;5066669;28;20385;-81
2022/12/26 09:20:32;;;;;;;;;;;;;;;8.04;100.00;100906.31;5065830;28;20417;-80
2022/12/26 09:22:57;;;;;;;;;;;;;;;8.06;100.00;100912.28;5066681;28;20257;-81
2022/12/26 09:25:24;;;;;;;;;;;;;;;8.03;100.00;100913.38;5066893;28;19912;-80
2022/12/26 09:27:52;;;;;;;;;;;;;;;8.01;100.00;100910.03;5067284;28;20437;-83
2022/12/26 09:30:17;;;;;;;;;;;;;;;8.00;100.00;100921.50;5064655;28;19927;-79
2022/12/26 09:32:43;;;;;;;;;;;;;;;8.07;100.00;100932.31;5061202;28;19952;-79
2022/12/26 09:35:08;;;;;;;;;;;;;;;8.08;100.00;100944.53;5063981;28;20770;-80
2022/12/26 09:37:33;;;;;;;;;;;;;;;8.08;100.00;100948.91;5068471;28;20108;-81
2022/12/26 09:39:59;;;;;;;;;;;;;;;8.02;100.00;100955.56;5064778;28;19916;-79
2022/12/26 09:42:49;;;;;;;;;;;;;;;8.02;100.00;100979.22;5068278;28;19912;-80
2022/12/26 09:45:16;;;;;;;;;;;;;;;8.03;100.00;100989.59;5068264;28;19920;-80
2022/12/26 09:47:51;;;;;;;;;;;;;;;8.02;100.00;101005.50;5066135;28;19923;-79
2022/12/26 09:50:19;;;;;;;;;;;;;;;8.03;100.00;101004.50;5068857;28;19923;-80
2022/12/26 09:52:48;;;;;;;;;;;;;;;8.11;100.00;101027.53;5068625;28;20290;-79
2022/12/26 09:55:16;;;;;;;;;;;;;;;8.11;100.00;101044.13;5068248;28;20375;-79
2022/12/26 09:57:44;;;;;;;;;;;;;;;8.08;100.00;101051.44;5068941;28;20319;-78
2022/12/26 10:00:15;;;;;;;;;;;;;;;8.10;100.00;101054.78;5069235;28;20640;-83
2022/12/26 10:02:40;;;;;;;;;;;;;;;8.14;100.00;101061.44;5070683;28;20014;-79
2022/12/26 10:05:11;;;;;;;;;;;;;;;8.04;100.00;101049.09;5070324;28;19916;-77
2022/12/26 10:07:40;;;;;;;;;;;;;;;7.71;100.00;101033.47;5066383;28;20476;-80
2022/12/26 10:10:13;;;;;;;;;;;;;;;8.54;100.00;101034.44;5068573;28;19919;-77
2022/12/26 10:12:53;;;;;;;;;;;;;;;10.08;100.00;101005.72;5073904;28;19916;-81
2022/12/26 10:15:33;;;;;;;;;;;;;;;9.58;100.00;100932.16;5084997;28;20033;-78
2022/12/26 10:18:18;;;;;;;;;;;;;;;9.22;100.00;100890.59;5067524;28;20740;-80
2022/12/26 10:21:10;;;;;;;;;;;;;;;8.72;100.00;100872.31;5056369;28;19916;-80
2022/12/26 10:23:43;;;;;;;;;;;;;;;9.06;100.00;100867.47;5071782;28;20019;-79
2022/12/26 10:26:22;;;;;;;;;;;;;;;8.76;100.00;100857.09;5065653;28;19999;-79
2022/12/26 10:28:58;;;;;;;;;;;;;;;9.23;100.00;100868.59;5066095;28;20375;-79
2022/12/26 10:31:23;;;;;;;;;;;;;;;9.51;100.00;100865.19;5066809;28;20287;-79
2022/12/26 10:34:07;;;;;;;;;;;;;;;9.12;100.00;100873.97;5066380;28;19917;-79
2022/12/26 10:36:41;;;;;;;;;;;;;;;8.59;100.00;100872.59;5067695;28;20148;-80
2022/12/26 10:39:13;;;;;;;;;;;;;;;8.31;100.00;100875.97;5067315;28;19916;-78
2022/12/26 10:41:41;;;;;;;;;;;;;;;8.28;100.00;100892.03;5064921;28;20152;-80
2022/12/26 10:44:11;;;;;;;;;;;;;;;8.20;100.00;100898.75;5066422;28;19924;-80
2022/12/26 10:47:00;;;;;;;;;;;;;;;7.94;100.00;100906.25;5066500;28;20457;-80
2022/12/26 10:49:26;;;;;;;;;;;;;;;7.80;100.00;100919.75;5073917;28;19955;-80
2022/12/26 10:51:53;;;;;;;;;;;;;;;7.82;100.00;100938.84;5064956;28;20473;-80
2022/12/26 10:54:19;;;;;;;;;;;;;;;7.72;100.00;100945.84;5066398;28;19915;-80
2022/12/26 10:56:46;;;;;;;;;;;;;;;7.70;100.00;100966.97;5064629;28;19939;-80
2022/12/26 10:59:16;;;;;;;;;;;;;;;7.60;100.00;100982.69;5066928;28;19958;-80
2022/12/26 11:01:46;;;;;;;;;;;;;;;7.53;100.00;100985.94;5066708;28;19945;-79
2022/12/26 11:04:14;;;;;;;;;;;;;;;7.39;100.00;100995.78;5065900;28;20229;-80
2022/12/26 11:06:41;;;;;;;;;;;;;;;7.34;100.00;100990.09;5066207;28;20131;-80
2022/12/26 11:09:21;;;;;;;;;;;;;;;7.31;100.00;101006.06;5066026;28;19970;-80
2022/12/26 11:11:47;;;;;;;;;;;;;;;7.13;100.00;101016.28;5064960;28;20287;-80
2022/12/26 11:14:30;;;;;;;;;;;;;;;7.16;100.00;101015.19;5064308;28;20454;-80
2022/12/26 11:16:57;;;;;;;;;;;;;;;7.08;100.00;101025.50;5063457;28;19936;-80
2022/12/26 11:19:30;;;;;;;;;;;;;;;7.40;100.00;101028.97;5079582;28;20230;-80
2022/12/26 11:22:14;;;;;;;;;;;;;;;7.36;100.00;101024.94;5064068;28;19918;-80
2022/12/26 11:24:40;;;;;;;;;;;;;;;7.47;100.00;101034.56;5064660;28;20450;-80
2022/12/26 11:27:16;;;;;;;;;;;;;;;7.49;100.00;101029.16;5063899;28;20011;-81
2022/12/26 11:29:42;;;;;;;;;;;;;;;7.49;100.00;101032.66;5063643;28;20393;-80
2022/12/26 11:32:15;;;;;;;;;;;;;;;7.39;100.00;101036.97;5061894;28;20200;-80
2022/12/26 11:34:46;;;;;;;;;;;;;;;7.56;100.00;101032.97;5064489;28;19912;-81
2022/12/26 11:37:23;;;;;;;;;;;;;;;7.61;100.00;101036.88;5062536;28;19919;-81
2022/12/26 11:39:50;;;;;;;;;;;;;;;7.55;100.00;101029.50;5063481;28;19962;-81
2022/12/26 11:42:18;;;;;;;;;;;;;;;7.46;100.00;101042.56;5062888;28;19986;-81
2022/12/26 11:44:45;;;;;;;;;;;;;;;7.42;100.00;101055.09;5062454;28;19993;-81
2022/12/26 11:47:15;;;;;;;;;;;;;;;7.44;100.00;101061.06;5063174;28;19943;-79
2022/12/26 11:49:46;;;;;;;;;;;;;;;7.45;100.00;101065.34;5061256;28;20304;-79
2022/12/26 11:52:50;;;;;;;;;;;;;;;7.44;100.00;101070.72;5063704;28;19992;-80
2022/12/26 11:55:22;;;;;;;;;;;;;;;7.44;100.00;101076.81;5023478;28;20220;-80
2022/12/26 11:57:56;;;;;;;;;;;;;;;7.52;100.00;101069.16;5037923;28;19913;-80
2022/12/26 12:00:23;;;;;;;;;;;;;;;7.61;100.00;101076.28;5039601;28;19928;-82
2022/12/26 12:02:49;;;;;;;;;;;;;;;7.50;100.00;101075.50;5039588;28;19912;-80
2022/12/26 12:05:22;;;;;;;;;;;;;;;7.44;100.00;101081.22;5039202;28;19913;-80
2022/12/26 12:07:47;;;;;;;;;;;;;;;7.51;100.00;101092.91;5022251;28;20089;-80
2022/12/26 12:10:31;;;;;;;;;;;;;;;7.48;100.00;101090.53;5022931;28;20032;-79
2022/12/26 12:13:13;;;;;;;;;;;;;;;7.57;100.00;101097.66;5022669;28;19913;-80
2022/12/26 12:16:04;;;;;;;;;;;;;;;7.55;100.00;101102.22;5040954;28;20340;-80
2022/12/26 12:18:30;;;;;;;;;;;;;;;7.38;100.00;101096.53;5021475;28;20398;-80
2022/12/26 12:20:55;;;;;;;;;;;;;;;7.31;100.00;101100.59;5040130;28;19932;-80
2022/12/26 12:23:26;;;;;;;;;;;;;;;7.24;100.00;101102.03;5039015;28;20148;-80
2022/12/26 12:26:10;;;;;;;;;;;;;;;7.21;100.00;101110.16;5039082;28;19934;-79
2022/12/26 12:29:01;;;;;;;;;;;;;;;7.26;100.00;101118.50;5063270;28;19916;-79
2022/12/26 12:31:34;;;;;;;;;;;;;;;7.29;100.00;101106.91;5069958;28;19927;-80
2022/12/26 12:34:18;;;;;;;;;;;;;;;7.23;100.00;101110.88;5061640;28;19912;-80
2022/12/26 12:36:58;;;;;;;;;;;;;;;7.23;100.00;101105.63;5063873;28;19976;-80
2022/12/26 12:39:33;;;;;;;;;;;;;;;7.30;100.00;101116.47;5060345;28;20280;-80
2022/12/26 12:42:04;;;;;;;;;;;;;;;7.43;100.00;101126.84;5063567;28;20104;-80
2022/12/26 12:44:42;;;;;;;;;;;;;;;7.35;100.00;101125.66;5061489;28;20349;-80
2022/12/26 12:47:17;;;;;;;;;;;;;;;7.34;100.00;101134.50;5063185;28;20643;-80
2022/12/26 12:49:45;;;;;;;;;;;;;;;7.34;100.00;101137.13;5061425;28;20226;-80
2022/12/26 12:52:20;;;;;;;;;;;;;;;7.46;100.00;101131.84;5063903;28;20003;-80
2022/12/26 12:54:54;;;;;;;;;;;;;;;7.51;100.00;101138.41;5060319;28;20497;-82
2022/12/26 12:57:19;;;;;;;;;;;;;;;7.56;100.00;101140.66;5061549;28;20401;-79
2022/12/26 12:59:44;;;;;;;;;;;;;;;7.63;100.00;101147.06;5061631;28;19912;-79
2022/12/26 13:02:16;;;;;;;;;;;;;;;7.51;100.00;101145.44;5061982;28;19995;-79
2022/12/26 13:04:44;;;;;;;;;;;;;;;7.31;100.00;101152.28;5062478;28;19923;-79
2022/12/26 13:07:12;;;;;;;;;;;;;;;7.34;100.00;101165.16;5062590;28;19924;-80
2022/12/26 13:09:50;;;;;;;;;;;;;;;7.26;100.00;101163.13;5062340;28;20453;-80
2022/12/26 13:12:19;;;;;;;;;;;;;;;7.36;100.00;101169.34;5077824;28;19916;-79
2022/12/26 13:14:57;;;;;;;;;;;;;;;7.35;100.00;101179.97;5062227;28;20012;-80
2022/12/26 13:17:25;;;;;;;;;;;;;;;7.23;100.00;101184.41;5063714;28;19923;-80
2022/12/26 13:19:59;;;;;;;;;;;;;;;7.09;100.00;101177.56;5062145;28;19958;-80
2022/12/26 13:22:26;;;;;;;;;;;;;;;7.16;100.00;101191.91;5079154;28;19994;-80
2022/12/26 13:24:57;;;;;;;;;;;;;;;7.18;100.00;101191.78;5061409;28;20169;-79
2022/12/26 13:27:26;;;;;;;;;;;;;;;7.24;100.00;101200.97;5069291;28;20650;-80
2022/12/26 13:29:52;;;;;;;;;;;;;;;7.24;100.00;101196.56;5061081;28;19936;-80
2022/12/26 13:32:29;;;;;;;;;;;;;;;7.17;100.00;101205.88;5045199;28;19931;-80
2022/12/26 13:34:56;;;;;;;;;;;;;;;7.13;100.00;101209.69;5063683;28;19912;-80
2022/12/26 13:37:36;;;;;;;;;;;;;;;7.21;100.00;101204.69;5062910;28;19912;-80
2022/12/26 13:40:22;;;;;;;;;;;;;;;7.20;100.00;101205.63;5062859;28;20092;-80
2022/12/26 13:45:53;;;;;;;;;;;;;;;7.31;100.00;101221.34;5064987;28;20448;-80
2022/12/26 13:48:25;;;;;;;;;;;;;;;7.24;100.00;101217.56;5062744;28;19993;-80
2022/12/26 13:50:54;;;;;;;;;;;;;;;7.22;100.00;101216.84;5063094;28;19920;-80
2022/12/26 13:53:22;;;;;;;;;;;;;;;7.26;100.00;101226.16;5063287;28;19919;-80
2022/12/26 13:55:48;;;;;;;;;;;;;;;7.20;100.00;101224.00;5057238;28;20023;-80
2022/12/26 13:58:21;;;;;;;;;;;;;;;7.13;100.00;101230.69;5058260;28;19916;-80
2022/12/26 14:00:47;;;;;;;;;;;;;;;6.92;100.00;101225.28;5067450;28;19917;-80
2022/12/26 14:03:18;;;;;;;;;;;;;;;6.89;100.00;101228.97;5061781;28;20241;-80
2022/12/26 14:05:46;;;;;;;;;;;;;;;6.79;100.00;101234.09;5070332;28;20341;-80
2022/12/26 14:08:24;;;;;;;;;;;;;;;6.65;100.00;101241.31;5060163;28;19924;-79
2022/12/26 14:10:55;;;;;;;;;;;;;;;6.58;100.00;101247.03;5062792;28;19920;-79
2022/12/26 14:13:29;;;;;;;;;;;;;;;6.55;100.00;101251.66;5062489;28;19916;-80
2022/12/26 14:15:58;;;;;;;;;;;;;;;6.52;100.00;101263.22;5062232;28;19912;-79
2022/12/26 14:18:23;;;;;;;;;;;;;;;6.54;100.00;101265.72;5061478;28;20414;-80
2022/12/26 14:20:53;;;;;;;;;;;;;;;6.41;100.00;101265.78;5062595;28;20031;-80
2022/12/26 14:23:18;;;;;;;;;;;;;;;6.31;100.00;101275.25;5073120;28;19923;-80
2022/12/26 14:25:43;;;;;;;;;;;;;;;6.26;100.00;101272.16;5067001;28;19922;-80
2022/12/26 14:28:24;;;;;;;;;;;;;;;6.20;100.00;101277.84;5065741;28;20631;-81
2022/12/26 14:30:54;;;;;;;;;;;;;;;6.13;100.00;101278.28;5063810;28;19920;-80
2022/12/26 14:33:33;;;;;;;;;;;;;;;6.06;100.00;101282.28;5068116;28;19912;-81
2022/12/26 14:36:18;;;;;;;;;;;;;;;5.99;100.00;101291.53;5073298;28;19912;-80
2022/12/26 14:38:47;;;;;;;;;;;;;;;5.94;100.00;101297.13;5064365;28;20284;-80
2022/12/26 14:43:09;;;;;;;;;;;;;;;5.87;100.00;101297.63;5065731;28;20195;-80
2022/12/26 14:44:14;;;;;;;;;;;;;;;5.83;100.00;101301.38;5065716;28;19960;-80
2022/12/26 14:46:39;;;;;;;;;;;;;;;5.81;100.00;101309.34;5065560;28;19916;-80
2022/12/26 14:49:34;;;;;;;;;;;;;;;5.74;100.00;101310.72;5063625;28;20217;-80